Maxwell AFB Gunter Annex, Alabama
Current Conditions -  °F | °C
As of 11:58 AM on Saturday 25 Oct 2014 (Local Time) from KMXF Reporting Station
Clear Clear  
Wind Chill: 74°   Ceiling: Unl
Heat Index: 74°   Visibility: 10mi
Dew Point: 51°   Wind: 8mph
Humidity: 44%   Direction: 10°N
Pressure: 30.09"   Gusts: NA
Location:  32.4045°N, 86.2459°W
Report Text: KMXF 251658Z AUTO 01007KT 350V080 10SM CLR 23/10 A3009 RMK AO2 SLP192 T02310103
Loading
Personal Weather Stations






























Interactive Weather Map
Tropical Storm Tracking
New forecast layout! Learn more

10-Day Weather Forecast

Advertisements
Track Severe Weather on mobile